sensor_id;sensor_type;location;lat;lon;timestamp;temperature;humidity
20946;DHT22;10632;51.276;7.116;2023-07-13T00:02:07;16.50;99.90
20946;DHT22;10632;51.276;7.116;2023-07-13T00:04:34;16.40;99.90
20946;DHT22;10632;51.276;7.116;2023-07-13T00:07:03;16.40;99.90
20946;DHT22;10632;51.276;7.116;2023-07-13T00:09:30;16.40;99.90
20946;DHT22;10632;51.276;7.116;2023-07-13T00:11:57;16.40;99.90
20946;DHT22;10632;51.276;7.116;2023-07-13T00:14:25;16.40;99.90
20946;DHT22;10632;51.276;7.116;2023-07-13T00:16:53;16.30;99.90
20946;DHT22;10632;51.276;7.116;2023-07-13T00:19:20;16.40;99.90
20946;DHT22;10632;51.276;7.116;2023-07-13T00:21:47;16.30;99.90
20946;DHT22;10632;51.276;7.116;2023-07-13T00:24:17;16.30;99.90
20946;DHT22;10632;51.276;7.116;2023-07-13T00:26:49;16.20;99.90
20946;DHT22;10632;51.276;7.116;2023-07-13T00:29:15;16.20;99.90
20946;DHT22;10632;51.276;7.116;2023-07-13T00:31:43;16.20;99.90
20946;DHT22;10632;51.276;7.116;2023-07-13T00:34:13;16.10;99.90
20946;DHT22;10632;51.276;7.116;2023-07-13T00:36:40;16.10;99.90
20946;DHT22;10632;51.276;7.116;2023-07-13T00:39:07;16.10;99.90
20946;DHT22;10632;51.276;7.116;2023-07-13T00:41:35;16.10;99.90
20946;DHT22;10632;51.276;7.116;2023-07-13T00:44:03;16.10;99.90
20946;DHT22;10632;51.276;7.116;2023-07-13T00:46:31;16.00;99.90
20946;DHT22;10632;51.276;7.116;2023-07-13T00:49:04;16.00;99.90
20946;DHT22;10632;51.276;7.116;2023-07-13T00:51:34;16.00;99.90
20946;DHT22;10632;51.276;7.116;2023-07-13T00:54:06;16.00;99.90
20946;DHT22;10632;51.276;7.116;2023-07-13T00:56:36;16.00;99.90
20946;DHT22;10632;51.276;7.116;2023-07-13T00:59:05;16.00;99.90
20946;DHT22;10632;51.276;7.116;2023-07-13T01:01:33;15.90;99.90
20946;DHT22;10632;51.276;7.116;2023-07-13T01:04:02;15.80;99.90
20946;DHT22;10632;51.276;7.116;2023-07-13T01:06:33;15.80;99.90
20946;DHT22;10632;51.276;7.116;2023-07-13T01:09:02;15.80;99.90
20946;DHT22;10632;51.276;7.116;2023-07-13T01:11:29;15.80;99.90
20946;DHT22;10632;51.276;7.116;2023-07-13T01:13:57;15.80;99.90
20946;DHT22;10632;51.276;7.116;2023-07-13T01:16:27;15.80;99.90
20946;DHT22;10632;51.276;7.116;2023-07-13T01:18:55;15.70;99.90
20946;DHT22;10632;51.276;7.116;2023-07-13T01:21:26;15.70;99.90
20946;DHT22;10632;51.276;7.116;2023-07-13T01:23:54;15.70;99.90
20946;DHT22;10632;51.276;7.116;2023-07-13T01:26:21;15.70;99.90
20946;DHT22;10632;51.276;7.116;2023-07-13T01:28:48;15.70;99.90
20946;DHT22;10632;51.276;7.116;2023-07-13T01:31:17;15.70;99.90
20946;DHT22;10632;51.276;7.116;2023-07-13T01:33:44;15.70;99.90
20946;DHT22;10632;51.276;7.116;2023-07-13T01:36:11;15.60;99.90
20946;DHT22;10632;51.276;7.116;2023-07-13T01:38:40;15.60;99.90
20946;DHT22;10632;51.276;7.116;2023-07-13T01:41:07;15.60;99.90
20946;DHT22;10632;51.276;7.116;2023-07-13T01:43:34;15.60;99.90
20946;DHT22;10632;51.276;7.116;2023-07-13T01:46:01;15.60;99.90
20946;DHT22;10632;51.276;7.116;2023-07-13T01:48:28;15.60;99.90
20946;DHT22;10632;51.276;7.116;2023-07-13T01:50:55;15.60;99.90
20946;DHT22;10632;51.276;7.116;2023-07-13T01:53:22;15.50;99.90
20946;DHT22;10632;51.276;7.116;2023-07-13T01:55:52;15.50;99.90
20946;DHT22;10632;51.276;7.116;2023-07-13T01:58:19;15.50;99.90
20946;DHT22;10632;51.276;7.116;2023-07-13T02:00:48;15.50;99.90
20946;DHT22;10632;51.276;7.116;2023-07-13T02:03:15;15.50;99.90
20946;DHT22;10632;51.276;7.116;2023-07-13T02:05:43;15.50;99.90
20946;DHT22;10632;51.276;7.116;2023-07-13T02:08:11;15.50;99.90
20946;DHT22;10632;51.276;7.116;2023-07-13T02:10:38;15.50;99.90
20946;DHT22;10632;51.276;7.116;2023-07-13T02:13:07;15.50;99.90
20946;DHT22;10632;51.276;7.116;2023-07-13T02:15:34;15.50;99.90
20946;DHT22;10632;51.276;7.116;2023-07-13T02:18:01;15.40;99.90
20946;DHT22;10632;51.276;7.116;2023-07-13T02:20:29;15.40;99.90
20946;DHT22;10632;51.276;7.116;2023-07-13T02:22:56;15.40;99.90
20946;DHT22;10632;51.276;7.116;2023-07-13T02:25:22;15.40;99.90
20946;DHT22;10632;51.276;7.116;2023-07-13T02:27:50;15.30;99.90
20946;DHT22;10632;51.276;7.116;2023-07-13T02:30:19;15.30;99.90
20946;DHT22;10632;51.276;7.116;2023-07-13T02:32:46;15.30;99.90
20946;DHT22;10632;51.276;7.116;2023-07-13T02:35:13;15.20;99.90
20946;DHT22;10632;51.276;7.116;2023-07-13T02:37:40;15.20;99.90
20946;DHT22;10632;51.276;7.116;2023-07-13T02:40:10;15.20;99.90
20946;DHT22;10632;51.276;7.116;2023-07-13T02:42:37;15.20;99.90
20946;DHT22;10632;51.276;7.116;2023-07-13T02:45:05;15.10;99.90
20946;DHT22;10632;51.276;7.116;2023-07-13T02:47:34;15.10;99.90
20946;DHT22;10632;51.276;7.116;2023-07-13T02:50:01;15.10;99.90
20946;DHT22;10632;51.276;7.116;2023-07-13T02:52:28;15.10;99.90
20946;DHT22;10632;51.276;7.116;2023-07-13T02:54:55;15.10;99.90
20946;DHT22;10632;51.276;7.116;2023-07-13T02:57:22;15.10;99.90
20946;DHT22;10632;51.276;7.116;2023-07-13T02:59:49;15.10;99.90
20946;DHT22;10632;51.276;7.116;2023-07-13T03:02:16;15.00;99.90
20946;DHT22;10632;51.276;7.116;2023-07-13T03:04:44;15.00;99.90
20946;DHT22;10632;51.276;7.116;2023-07-13T03:07:11;15.00;99.90
20946;DHT22;10632;51.276;7.116;2023-07-13T03:09:39;14.90;99.90
20946;DHT22;10632;51.276;7.116;2023-07-13T03:12:07;14.90;99.90
20946;DHT22;10632;51.276;7.116;2023-07-13T03:14:37;14.90;99.90
20946;DHT22;10632;51.276;7.116;2023-07-13T03:17:05;14.90;99.90
20946;DHT22;10632;51.276;7.116;2023-07-13T03:19:32;14.90;99.90
20946;DHT22;10632;51.276;7.116;2023-07-13T03:22:00;14.90;99.90
20946;DHT22;10632;51.276;7.116;2023-07-13T03:24:27;14.90;99.90
20946;DHT22;10632;51.276;7.116;2023-07-13T03:26:54;14.80;99.90
20946;DHT22;10632;51.276;7.116;2023-07-13T03:29:21;14.80;99.90
20946;DHT22;10632;51.276;7.116;2023-07-13T03:31:48;14.80;99.90
20946;DHT22;10632;51.276;7.116;2023-07-13T03:34:15;14.80;99.90
20946;DHT22;10632;51.276;7.116;2023-07-13T03:36:42;14.80;99.90
20946;DHT22;10632;51.276;7.116;2023-07-13T03:39:10;14.80;99.90
20946;DHT22;10632;51.276;7.116;2023-07-13T03:41:38;14.70;99.90
20946;DHT22;10632;51.276;7.116;2023-07-13T03:44:05;14.70;99.90
20946;DHT22;10632;51.276;7.116;2023-07-13T03:46:32;14.70;99.90
20946;DHT22;10632;51.276;7.116;2023-07-13T03:49:01;14.70;99.90
20946;DHT22;10632;51.276;7.116;2023-07-13T03:51:28;14.60;99.90
20946;DHT22;10632;51.276;7.116;2023-07-13T03:53:55;14.60;99.90
20946;DHT22;10632;51.276;7.116;2023-07-13T03:56:24;14.60;99.90
20946;DHT22;10632;51.276;7.116;2023-07-13T03:58:51;14.70;99.90
20946;DHT22;10632;51.276;7.116;2023-07-13T04:01:20;14.70;99.90
20946;DHT22;10632;51.276;7.116;2023-07-13T04:03:48;14.60;99.90
20946;DHT22;10632;51.276;7.116;2023-07-13T04:06:18;14.60;99.90
20946;DHT22;10632;51.276;7.116;2023-07-13T04:08:48;14.60;99.90
20946;DHT22;10632;51.276;7.116;2023-07-13T04:11:17;14.60;99.90
20946;DHT22;10632;51.276;7.116;2023-07-13T04:13:45;14.60;99.90
20946;DHT22;10632;51.276;7.116;2023-07-13T04:16:13;14.60;99.90
20946;DHT22;10632;51.276;7.116;2023-07-13T04:18:40;14.70;99.90
20946;DHT22;10632;51.276;7.116;2023-07-13T04:21:08;14.60;99.90
20946;DHT22;10632;51.276;7.116;2023-07-13T04:23:35;14.60;99.90
20946;DHT22;10632;51.276;7.116;2023-07-13T04:26:02;14.60;99.90
20946;DHT22;10632;51.276;7.116;2023-07-13T04:28:30;14.60;99.90
20946;DHT22;10632;51.276;7.116;2023-07-13T04:30:59;14.60;99.90
20946;DHT22;10632;51.276;7.116;2023-07-13T04:33:27;14.60;99.90
20946;DHT22;10632;51.276;7.116;2023-07-13T04:35:55;14.60;99.90
20946;DHT22;10632;51.276;7.116;2023-07-13T04:38:24;14.60;99.90
20946;DHT22;10632;51.276;7.116;2023-07-13T04:40:54;14.60;99.90
20946;DHT22;10632;51.276;7.116;2023-07-13T04:43:21;14.60;99.90
20946;DHT22;10632;51.276;7.116;2023-07-13T04:45:49;14.60;99.90
20946;DHT22;10632;51.276;7.116;2023-07-13T04:48:18;14.60;99.90
20946;DHT22;10632;51.276;7.116;2023-07-13T04:50:45;14.50;99.90
20946;DHT22;10632;51.276;7.116;2023-07-13T04:53:12;14.60;99.90
20946;DHT22;10632;51.276;7.116;2023-07-13T04:55:39;14.60;99.90
20946;DHT22;10632;51.276;7.116;2023-07-13T04:58:06;14.60;99.90
20946;DHT22;10632;51.276;7.116;2023-07-13T05:00:33;14.70;99.90
20946;DHT22;10632;51.276;7.116;2023-07-13T05:03:00;14.60;99.90
20946;DHT22;10632;51.276;7.116;2023-07-13T05:05:28;14.70;99.90
20946;DHT22;10632;51.276;7.116;2023-07-13T05:07:55;14.80;99.90
20946;DHT22;10632;51.276;7.116;2023-07-13T05:10:22;14.80;99.90
20946;DHT22;10632;51.276;7.116;2023-07-13T05:12:50;14.80;99.90
20946;DHT22;10632;51.276;7.116;2023-07-13T05:15:17;14.80;99.90
20946;DHT22;10632;51.276;7.116;2023-07-13T05:17:46;14.90;99.90
20946;DHT22;10632;51.276;7.116;2023-07-13T05:20:13;14.90;99.90
20946;DHT22;10632;51.276;7.116;2023-07-13T05:22:42;14.90;99.90
20946;DHT22;10632;51.276;7.116;2023-07-13T05:25:09;14.90;99.90
20946;DHT22;10632;51.276;7.116;2023-07-13T05:27:38;15.00;99.90
20946;DHT22;10632;51.276;7.116;2023-07-13T05:30:07;15.00;99.90
20946;DHT22;10632;51.276;7.116;2023-07-13T05:32:37;15.00;99.90
20946;DHT22;10632;51.276;7.116;2023-07-13T05:35:05;15.00;99.90
20946;DHT22;10632;51.276;7.116;2023-07-13T05:37:32;15.00;99.90
20946;DHT22;10632;51.276;7.116;2023-07-13T05:40:01;15.00;99.90
20946;DHT22;10632;51.276;7.116;2023-07-13T05:42:29;15.00;99.90
20946;DHT22;10632;51.276;7.116;2023-07-13T05:44:56;15.10;99.90
20946;DHT22;10632;51.276;7.116;2023-07-13T05:47:23;15.10;99.90
20946;DHT22;10632;51.276;7.116;2023-07-13T05:49:50;15.10;99.90
20946;DHT22;10632;51.276;7.116;2023-07-13T05:52:17;15.10;99.90
20946;DHT22;10632;51.276;7.116;2023-07-13T05:54:44;15.10;99.90
20946;DHT22;10632;51.276;7.116;2023-07-13T05:57:12;15.10;99.90
20946;DHT22;10632;51.276;7.116;2023-07-13T05:59:39;15.10;99.90
20946;DHT22;10632;51.276;7.116;2023-07-13T06:02:08;15.10;99.90
20946;DHT22;10632;51.276;7.116;2023-07-13T06:04:36;15.10;99.90
20946;DHT22;10632;51.276;7.116;2023-07-13T06:07:03;15.10;99.90
20946;DHT22;10632;51.276;7.116;2023-07-13T06:09:30;15.10;99.90
20946;DHT22;10632;51.276;7.116;2023-07-13T06:11:57;15.10;99.90
20946;DHT22;10632;51.276;7.116;2023-07-13T06:14:26;15.20;99.90
20946;DHT22;10632;51.276;7.116;2023-07-13T06:16:53;15.20;99.90
20946;DHT22;10632;51.276;7.116;2023-07-13T06:19:20;15.20;99.90
20946;DHT22;10632;51.276;7.116;2023-07-13T06:21:47;15.20;99.90
20946;DHT22;10632;51.276;7.116;2023-07-13T06:24:14;15.20;99.90
20946;DHT22;10632;51.276;7.116;2023-07-13T06:26:41;15.20;99.90
20946;DHT22;10632;51.276;7.116;2023-07-13T06:29:08;15.20;99.90
20946;DHT22;10632;51.276;7.116;2023-07-13T06:31:36;15.20;99.90
20946;DHT22;10632;51.276;7.116;2023-07-13T06:34:03;15.20;99.90
20946;DHT22;10632;51.276;7.116;2023-07-13T06:36:30;15.30;99.90
20946;DHT22;10632;51.276;7.116;2023-07-13T06:38:57;15.30;99.90
20946;DHT22;10632;51.276;7.116;2023-07-13T06:41:24;15.30;99.90
20946;DHT22;10632;51.276;7.116;2023-07-13T06:43:51;15.30;99.90
20946;DHT22;10632;51.276;7.116;2023-07-13T06:46:20;15.40;99.90
20946;DHT22;10632;51.276;7.116;2023-07-13T06:48:49;15.40;99.90
20946;DHT22;10632;51.276;7.116;2023-07-13T06:51:19;15.40;99.90
20946;DHT22;10632;51.276;7.116;2023-07-13T06:53:45;15.40;99.90
20946;DHT22;10632;51.276;7.116;2023-07-13T06:56:13;15.40;99.90
20946;DHT22;10632;51.276;7.116;2023-07-13T06:58:40;15.50;99.90
20946;DHT22;10632;51.276;7.116;2023-07-13T07:01:07;15.40;99.90
20946;DHT22;10632;51.276;7.116;2023-07-13T07:03:34;15.50;99.90
20946;DHT22;10632;51.276;7.116;2023-07-13T07:06:15;15.50;99.90
20946;DHT22;10632;51.276;7.116;2023-07-13T07:08:42;15.50;99.90
20946;DHT22;10632;51.276;7.116;2023-07-13T07:11:13;15.50;99.90
20946;DHT22;10632;51.276;7.116;2023-07-13T07:13:40;15.60;99.90
20946;DHT22;10632;51.276;7.116;2023-07-13T07:16:07;15.60;99.90
20946;DHT22;10632;51.276;7.116;2023-07-13T07:18:34;15.60;99.90
20946;DHT22;10632;51.276;7.116;2023-07-13T07:21:03;15.70;99.90
20946;DHT22;10632;51.276;7.116;2023-07-13T07:23:30;15.70;99.90
20946;DHT22;10632;51.276;7.116;2023-07-13T07:25:57;15.70;99.90
20946;DHT22;10632;51.276;7.116;2023-07-13T07:28:24;15.80;99.90
20946;DHT22;10632;51.276;7.116;2023-07-13T07:30:55;15.80;99.90
20946;DHT22;10632;51.276;7.116;2023-07-13T07:33:22;15.80;99.90
20946;DHT22;10632;51.276;7.116;2023-07-13T07:35:49;15.90;99.90
20946;DHT22;10632;51.276;7.116;2023-07-13T07:38:17;15.90;99.90
20946;DHT22;10632;51.276;7.116;2023-07-13T07:40:44;16.00;99.90
20946;DHT22;10632;51.276;7.116;2023-07-13T07:43:11;16.10;99.90
20946;DHT22;10632;51.276;7.116;2023-07-13T07:45:39;16.10;99.90
20946;DHT22;10632;51.276;7.116;2023-07-13T07:48:07;16.20;99.90
20946;DHT22;10632;51.276;7.116;2023-07-13T07:50:35;16.20;99.90
20946;DHT22;10632;51.276;7.116;2023-07-13T07:53:04;16.30;99.90
20946;DHT22;10632;51.276;7.116;2023-07-13T07:55:34;16.30;99.90
20946;DHT22;10632;51.276;7.116;2023-07-13T07:58:04;16.30;99.90
20946;DHT22;10632;51.276;7.116;2023-07-13T08:00:31;16.40;99.90
20946;DHT22;10632;51.276;7.116;2023-07-13T08:02:58;16.40;99.90
20946;DHT22;10632;51.276;7.116;2023-07-13T08:05:29;16.40;99.90
20946;DHT22;10632;51.276;7.116;2023-07-13T08:07:56;16.40;99.90
20946;DHT22;10632;51.276;7.116;2023-07-13T08:10:23;16.40;99.90
20946;DHT22;10632;51.276;7.116;2023-07-13T08:12:52;16.50;99.90
20946;DHT22;10632;51.276;7.116;2023-07-13T08:15:19;16.50;99.90
20946;DHT22;10632;51.276;7.116;2023-07-13T08:17:46;16.50;99.90
20946;DHT22;10632;51.276;7.116;2023-07-13T08:20:15;16.60;99.90
20946;DHT22;10632;51.276;7.116;2023-07-13T08:22:43;16.60;99.90
20946;DHT22;10632;51.276;7.116;2023-07-13T08:25:10;16.70;99.90
20946;DHT22;10632;51.276;7.116;2023-07-13T08:27:37;16.70;99.90
20946;DHT22;10632;51.276;7.116;2023-07-13T08:30:06;16.80;99.90
20946;DHT22;10632;51.276;7.116;2023-07-13T08:32:33;16.80;99.90
20946;DHT22;10632;51.276;7.116;2023-07-13T08:35:00;16.80;99.90
20946;DHT22;10632;51.276;7.116;2023-07-13T08:37:27;16.90;99.90
20946;DHT22;10632;51.276;7.116;2023-07-13T08:39:54;16.90;99.90
20946;DHT22;10632;51.276;7.116;2023-07-13T08:42:31;16.90;99.90
20946;DHT22;10632;51.276;7.116;2023-07-13T08:45:06;17.00;99.90
20946;DHT22;10632;51.276;7.116;2023-07-13T08:47:39;17.00;99.90
20946;DHT22;10632;51.276;7.116;2023-07-13T08:50:11;17.00;99.90
20946;DHT22;10632;51.276;7.116;2023-07-13T08:52:41;16.90;99.90
20946;DHT22;10632;51.276;7.116;2023-07-13T08:55:13;16.90;99.90
20946;DHT22;10632;51.276;7.116;2023-07-13T08:57:42;17.00;99.90
20946;DHT22;10632;51.276;7.116;2023-07-13T09:00:13;17.00;99.90
20946;DHT22;10632;51.276;7.116;2023-07-13T09:02:45;17.10;99.90
20946;DHT22;10632;51.276;7.116;2023-07-13T09:05:14;17.20;99.90
20946;DHT22;10632;51.276;7.116;2023-07-13T09:07:55;17.30;99.90
20946;DHT22;10632;51.276;7.116;2023-07-13T09:10:28;17.40;99.90
20946;DHT22;10632;51.276;7.116;2023-07-13T09:13:05;17.50;99.90
20946;DHT22;10632;51.276;7.116;2023-07-13T09:15:39;17.60;99.90
20946;DHT22;10632;51.276;7.116;2023-07-13T09:18:12;17.70;99.90
20946;DHT22;10632;51.276;7.116;2023-07-13T09:20:44;17.80;99.90
20946;DHT22;10632;51.276;7.116;2023-07-13T09:23:15;18.00;99.90
20946;DHT22;10632;51.276;7.116;2023-07-13T09:25:46;18.10;99.90
20946;DHT22;10632;51.276;7.116;2023-07-13T09:28:19;18.20;99.90
20946;DHT22;10632;51.276;7.116;2023-07-13T09:30:54;18.20;99.90
20946;DHT22;10632;51.276;7.116;2023-07-13T09:33:22;18.30;99.90
20946;DHT22;10632;51.276;7.116;2023-07-13T09:35:50;18.30;99.90
20946;DHT22;10632;51.276;7.116;2023-07-13T09:38:18;18.40;99.90
20946;DHT22;10632;51.276;7.116;2023-07-13T09:41:02;18.50;99.90
20946;DHT22;10632;51.276;7.116;2023-07-13T09:43:34;18.60;99.90
20946;DHT22;10632;51.276;7.116;2023-07-13T09:46:03;18.70;99.90
20946;DHT22;10632;51.276;7.116;2023-07-13T09:48:34;18.80;99.90
20946;DHT22;10632;51.276;7.116;2023-07-13T09:51:07;18.90;99.90
20946;DHT22;10632;51.276;7.116;2023-07-13T09:53:41;19.00;99.90
20946;DHT22;10632;51.276;7.116;2023-07-13T09:56:19;19.10;99.90
20946;DHT22;10632;51.276;7.116;2023-07-13T09:58:47;19.20;99.90
20946;DHT22;10632;51.276;7.116;2023-07-13T10:01:31;19.20;99.90
20946;DHT22;10632;51.276;7.116;2023-07-13T10:03:58;19.20;99.90
20946;DHT22;10632;51.276;7.116;2023-07-13T10:06:25;19.10;99.90
20946;DHT22;10632;51.276;7.116;2023-07-13T10:08:55;19.10;99.90
20946;DHT22;10632;51.276;7.116;2023-07-13T10:11:24;19.10;99.90
20946;DHT22;10632;51.276;7.116;2023-07-13T10:13:56;19.20;99.90
20946;DHT22;10632;51.276;7.116;2023-07-13T10:16:30;19.30;99.90
20946;DHT22;10632;51.276;7.116;2023-07-13T10:18:59;19.20;99.90
20946;DHT22;10632;51.276;7.116;2023-07-13T10:21:32;19.20;99.90
20946;DHT22;10632;51.276;7.116;2023-07-13T10:24:05;19.20;99.90
20946;DHT22;10632;51.276;7.116;2023-07-13T10:26:43;19.30;99.90
20946;DHT22;10632;51.276;7.116;2023-07-13T10:29:14;19.40;99.90
20946;DHT22;10632;51.276;7.116;2023-07-13T10:31:45;19.60;99.90
20946;DHT22;10632;51.276;7.116;2023-07-13T10:34:13;19.70;99.90
20946;DHT22;10632;51.276;7.116;2023-07-13T10:36:43;19.70;99.90
20946;DHT22;10632;51.276;7.116;2023-07-13T10:39:16;19.80;99.90
20946;DHT22;10632;51.276;7.116;2023-07-13T10:41:52;19.80;99.90
20946;DHT22;10632;51.276;7.116;2023-07-13T10:44:22;19.80;99.90
20946;DHT22;10632;51.276;7.116;2023-07-13T10:46:55;19.80;99.90
20946;DHT22;10632;51.276;7.116;2023-07-13T10:49:24;19.80;99.90
20946;DHT22;10632;51.276;7.116;2023-07-13T10:51:53;20.00;99.90
20946;DHT22;10632;51.276;7.116;2023-07-13T10:54:22;20.00;99.90
20946;DHT22;10632;51.276;7.116;2023-07-13T10:57:08;20.10;99.90
20946;DHT22;10632;51.276;7.116;2023-07-13T10:59:42;20.20;99.90
20946;DHT22;10632;51.276;7.116;2023-07-13T11:02:21;20.10;99.90
20946;DHT22;10632;51.276;7.116;2023-07-13T11:04:49;20.20;99.90
20946;DHT22;10632;51.276;7.116;2023-07-13T11:07:20;20.30;99.90
20946;DHT22;10632;51.276;7.116;2023-07-13T11:09:50;20.40;99.90
20946;DHT22;10632;51.276;7.116;2023-07-13T11:12:51;20.30;99.90
20946;DHT22;10632;51.276;7.116;2023-07-13T11:15:43;20.30;99.90
20946;DHT22;10632;51.276;7.116;2023-07-13T11:18:22;20.20;99.90
20946;DHT22;10632;51.276;7.116;2023-07-13T11:20:51;20.20;99.90
20946;DHT22;10632;51.276;7.116;2023-07-13T11:23:35;20.10;99.90
20946;DHT22;10632;51.276;7.116;2023-07-13T11:26:39;20.00;99.90
20946;DHT22;10632;51.276;7.116;2023-07-13T11:29:09;19.90;99.90
20946;DHT22;10632;51.276;7.116;2023-07-13T11:31:36;19.80;99.90
20946;DHT22;10632;51.276;7.116;2023-07-13T11:34:12;19.70;99.90
20946;DHT22;10632;51.276;7.116;2023-07-13T11:36:43;19.60;99.90
20946;DHT22;10632;51.276;7.116;2023-07-13T11:39:17;19.60;99.90
20946;DHT22;10632;51.276;7.116;2023-07-13T11:41:50;19.60;99.90
20946;DHT22;10632;51.276;7.116;2023-07-13T11:44:20;19.80;99.90
20946;DHT22;10632;51.276;7.116;2023-07-13T11:46:49;20.00;99.90
20946;DHT22;10632;51.276;7.116;2023-07-13T11:49:19;20.20;99.90
20946;DHT22;10632;51.276;7.116;2023-07-13T11:51:47;20.30;99.90
20946;DHT22;10632;51.276;7.116;2023-07-13T11:54:24;20.50;99.90
20946;DHT22;10632;51.276;7.116;2023-07-13T11:56:52;20.80;99.90
20946;DHT22;10632;51.276;7.116;2023-07-13T11:59:20;20.90;99.90
20946;DHT22;10632;51.276;7.116;2023-07-13T12:01:51;21.00;99.90
20946;DHT22;10632;51.276;7.116;2023-07-13T12:04:24;21.00;99.90
20946;DHT22;10632;51.276;7.116;2023-07-13T12:06:57;21.00;99.90
20946;DHT22;10632;51.276;7.116;2023-07-13T12:09:27;21.10;99.90
20946;DHT22;10632;51.276;7.116;2023-07-13T12:11:56;21.30;99.90
20946;DHT22;10632;51.276;7.116;2023-07-13T12:14:24;21.30;99.90
20946;DHT22;10632;51.276;7.116;2023-07-13T12:16:52;21.40;99.90
20946;DHT22;10632;51.276;7.116;2023-07-13T12:19:24;21.50;99.90
20946;DHT22;10632;51.276;7.116;2023-07-13T12:21:54;21.60;99.90
20946;DHT22;10632;51.276;7.116;2023-07-13T12:24:23;21.80;99.90
20946;DHT22;10632;51.276;7.116;2023-07-13T12:26:54;21.90;99.90
20946;DHT22;10632;51.276;7.116;2023-07-13T12:29:22;22.00;99.90
20946;DHT22;10632;51.276;7.116;2023-07-13T12:31:50;22.10;99.90
20946;DHT22;10632;51.276;7.116;2023-07-13T12:34:19;22.10;99.90
20946;DHT22;10632;51.276;7.116;2023-07-13T12:36:51;22.10;99.90
20946;DHT22;10632;51.276;7.116;2023-07-13T12:39:20;22.10;99.90
20946;DHT22;10632;51.276;7.116;2023-07-13T12:41:49;22.20;99.90
20946;DHT22;10632;51.276;7.116;2023-07-13T12:44:26;22.30;99.90
20946;DHT22;10632;51.276;7.116;2023-07-13T12:46:57;22.40;99.90
20946;DHT22;10632;51.276;7.116;2023-07-13T12:49:27;22.30;99.90
20946;DHT22;10632;51.276;7.116;2023-07-13T12:51:59;22.30;99.90
20946;DHT22;10632;51.276;7.116;2023-07-13T12:54:28;22.20;99.90
20946;DHT22;10632;51.276;7.116;2023-07-13T12:56:56;22.20;99.90
20946;DHT22;10632;51.276;7.116;2023-07-13T12:59:26;22.20;99.90
20946;DHT22;10632;51.276;7.116;2023-07-13T13:01:55;22.10;99.90
20946;DHT22;10632;51.276;7.116;2023-07-13T13:04:22;21.90;99.90
20946;DHT22;10632;51.276;7.116;2023-07-13T13:07:02;21.80;99.90
20946;DHT22;10632;51.276;7.116;2023-07-13T13:09:30;21.70;99.90
20946;DHT22;10632;51.276;7.116;2023-07-13T13:11:58;21.60;99.90
20946;DHT22;10632;51.276;7.116;2023-07-13T13:14:25;21.50;99.90
20946;DHT22;10632;51.276;7.116;2023-07-13T13:16:52;21.50;99.90
20946;DHT22;10632;51.276;7.116;2023-07-13T13:19:22;21.60;99.90
20946;DHT22;10632;51.276;7.116;2023-07-13T13:21:50;21.60;99.90
20946;DHT22;10632;51.276;7.116;2023-07-13T13:24:21;21.70;99.90
20946;DHT22;10632;51.276;7.116;2023-07-13T13:26:49;21.70;99.90
20946;DHT22;10632;51.276;7.116;2023-07-13T13:29:19;21.70;99.90
20946;DHT22;10632;51.276;7.116;2023-07-13T13:31:47;21.60;99.90
20946;DHT22;10632;51.276;7.116;2023-07-13T13:34:15;21.50;99.90
20946;DHT22;10632;51.276;7.116;2023-07-13T13:36:43;21.50;99.90
20946;DHT22;10632;51.276;7.116;2023-07-13T13:39:21;21.30;99.90
20946;DHT22;10632;51.276;7.116;2023-07-13T13:41:48;21.30;99.90
20946;DHT22;10632;51.276;7.116;2023-07-13T13:44:20;21.20;99.90
20946;DHT22;10632;51.276;7.116;2023-07-13T13:46:50;21.20;99.90
20946;DHT22;10632;51.276;7.116;2023-07-13T13:49:21;21.10;99.90
20946;DHT22;10632;51.276;7.116;2023-07-13T13:51:49;21.10;99.90
20946;DHT22;10632;51.276;7.116;2023-07-13T13:54:17;21.00;99.90
20946;DHT22;10632;51.276;7.116;2023-07-13T13:56:47;20.90;99.90
20946;DHT22;10632;51.276;7.116;2023-07-13T13:59:14;20.90;99.90
20946;DHT22;10632;51.276;7.116;2023-07-13T14:01:42;20.80;99.90
20946;DHT22;10632;51.276;7.116;2023-07-13T14:04:14;20.80;99.90
20946;DHT22;10632;51.276;7.116;2023-07-13T14:06:43;20.80;99.90
20946;DHT22;10632;51.276;7.116;2023-07-13T14:09:11;20.70;99.90
20946;DHT22;10632;51.276;7.116;2023-07-13T14:11:40;20.70;99.90
20946;DHT22;10632;51.276;7.116;2023-07-13T14:14:14;20.70;99.90
20946;DHT22;10632;51.276;7.116;2023-07-13T14:16:44;20.60;99.90
20946;DHT22;10632;51.276;7.116;2023-07-13T14:19:13;20.60;99.90
20946;DHT22;10632;51.276;7.116;2023-07-13T14:21:40;20.60;99.90
20946;DHT22;10632;51.276;7.116;2023-07-13T14:24:09;20.50;99.90
20946;DHT22;10632;51.276;7.116;2023-07-13T14:26:38;20.50;99.90
20946;DHT22;10632;51.276;7.116;2023-07-13T14:29:14;20.50;99.90
20946;DHT22;10632;51.276;7.116;2023-07-13T14:31:42;20.40;99.90
20946;DHT22;10632;51.276;7.116;2023-07-13T14:34:10;20.40;99.90
20946;DHT22;10632;51.276;7.116;2023-07-13T14:36:40;20.30;99.90
20946;DHT22;10632;51.276;7.116;2023-07-13T14:39:12;20.30;99.90
20946;DHT22;10632;51.276;7.116;2023-07-13T14:41:39;20.40;99.90
20946;DHT22;10632;51.276;7.116;2023-07-13T14:44:12;20.40;99.90
20946;DHT22;10632;51.276;7.116;2023-07-13T14:46:40;20.50;99.90
20946;DHT22;10632;51.276;7.116;2023-07-13T14:49:13;20.60;99.90
20946;DHT22;10632;51.276;7.116;2023-07-13T14:51:41;20.80;99.90
20946;DHT22;10632;51.276;7.116;2023-07-13T14:54:08;20.90;99.90
20946;DHT22;10632;51.276;7.116;2023-07-13T14:56:37;20.90;99.90
20946;DHT22;10632;51.276;7.116;2023-07-13T14:59:04;20.90;99.90
20946;DHT22;10632;51.276;7.116;2023-07-13T15:01:34;20.90;99.90
20946;DHT22;10632;51.276;7.116;2023-07-13T15:04:02;21.00;99.90
20946;DHT22;10632;51.276;7.116;2023-07-13T15:06:29;21.00;99.90
20946;DHT22;10632;51.276;7.116;2023-07-13T15:08:57;21.00;99.90
20946;DHT22;10632;51.276;7.116;2023-07-13T15:11:24;20.90;99.90
20946;DHT22;10632;51.276;7.116;2023-07-13T15:13:52;20.80;99.90
20946;DHT22;10632;51.276;7.116;2023-07-13T15:16:21;20.80;99.90
20946;DHT22;10632;51.276;7.116;2023-07-13T15:18:51;20.80;99.90
20946;DHT22;10632;51.276;7.116;2023-07-13T15:21:20;20.80;99.90
20946;DHT22;10632;51.276;7.116;2023-07-13T15:23:48;20.80;99.90
20946;DHT22;10632;51.276;7.116;2023-07-13T15:26:16;20.80;99.90
20946;DHT22;10632;51.276;7.116;2023-07-13T15:28:43;20.80;99.90
20946;DHT22;10632;51.276;7.116;2023-07-13T15:31:21;20.80;99.90
20946;DHT22;10632;51.276;7.116;2023-07-13T15:33:51;20.80;99.90
20946;DHT22;10632;51.276;7.116;2023-07-13T15:36:19;20.70;99.90
20946;DHT22;10632;51.276;7.116;2023-07-13T15:38:47;20.60;99.90
20946;DHT22;10632;51.276;7.116;2023-07-13T15:41:17;20.20;99.90
20946;DHT22;10632;51.276;7.116;2023-07-13T15:43:46;19.90;99.90